Time;durP1;ratioP1;P1;durP2;ratioP2;P2;SDS_P1;SDS_P2;PMS_P1;PMS_P2;Temp;Humidity;BMP_temperature;BMP_pressure;BME280_temperature;BME280_humidity;BME280_pressure;Samples;Min_cycle;Max_cycle;Signal;HPM_P1;HPM_P2
2021/10/21 00:00:40;;;;;;;9.63;8.82;;;11.60;67.60;;;;;;5114734;28;20051;-74
2021/10/21 00:03:12;;;;;;;9.88;9.07;;;11.60;66.60;;;;;;5112088;28;20158;-76
2021/10/21 00:05:44;;;;;;;9.75;8.95;;;11.70;68.10;;;;;;5100400;28;20043;-74
2021/10/21 00:08:17;;;;;;;9.48;8.75;;;11.80;68.60;;;;;;5090159;28;20047;-74
2021/10/21 00:10:50;;;;;;;9.27;8.57;;;11.80;67.50;;;;;;5112551;28;20414;-73
2021/10/21 00:13:22;;;;;;;9.57;8.77;;;11.80;66.90;;;;;;5112543;28;20525;-74
2021/10/21 00:15:54;;;;;;;10.20;8.52;;;11.80;70.50;;;;;;5095814;29;20110;-74
2021/10/21 00:18:26;;;;;;;9.65;8.85;;;11.80;67.10;;;;;;5089629;28;20126;-73
2021/10/21 00:20:58;;;;;;;9.40;8.70;;;11.90;66.20;;;;;;5112470;28;20043;-73
2021/10/21 00:23:30;;;;;;;9.55;8.85;;;11.90;65.40;;;;;;5113545;28;20135;-74
2021/10/21 00:26:06;;;;;;;10.15;9.20;;;12.00;65.40;;;;;;5112231;28;20383;-73
2021/10/21 00:28:39;;;;;;;14.55;8.68;;;12.00;64.90;;;;;;5092471;28;20117;-74
2021/10/21 00:31:11;;;;;;;9.70;9.00;;;12.10;66.10;;;;;;5087665;28;20644;-73
2021/10/21 00:33:43;;;;;;;9.95;9.13;;;12.10;66.60;;;;;;5097114;28;20055;-74
2021/10/21 00:36:15;;;;;;;10.45;9.65;;;12.10;66.30;;;;;;5112213;28;20495;-74
2021/10/21 00:38:47;;;;;;;10.00;9.10;;;12.10;65.60;;;;;;5113278;28;20070;-75
2021/10/21 00:41:19;;;;;;;10.10;9.30;;;12.10;67.20;;;;;;5110767;28;20043;-74
2021/10/21 00:44:08;;;;;;;10.18;9.18;;;12.10;69.00;;;;;;5113709;28;20437;-74
2021/10/21 00:46:40;;;;;;;10.52;9.73;;;12.10;69.30;;;;;;5111950;28;20207;-74
2021/10/21 00:49:12;;;;;;;17.05;9.38;;;12.10;67.00;;;;;;5096964;28;20047;-73
2021/10/21 00:51:44;;;;;;;10.20;9.32;;;12.10;71.10;;;;;;5094431;28;20047;-75
2021/10/21 00:54:18;;;;;;;10.07;9.27;;;12.10;69.60;;;;;;5113237;28;20129;-74
2021/10/21 00:56:52;;;;;;;10.20;9.40;;;12.10;67.40;;;;;;5111189;28;20043;-74
2021/10/21 00:59:25;;;;;;;10.48;9.48;;;12.10;68.20;;;;;;5091096;28;20039;-74
2021/10/21 01:01:58;;;;;;;9.98;9.18;;;12.10;67.20;;;;;;5111272;28;20071;-74
2021/10/21 01:04:30;;;;;;;10.25;9.45;;;12.10;66.60;;;;;;5111196;28;20047;-74
2021/10/21 01:07:02;;;;;;;10.20;9.40;;;12.20;65.60;;;;;;5112320;28;20242;-73
2021/10/21 01:09:37;;;;;;;10.32;9.52;;;12.20;67.00;;;;;;5113546;28;20481;-74
2021/10/21 01:12:11;;;;;;;10.50;9.60;;;12.20;67.20;;;;;;5110489;28;20051;-74
2021/10/21 01:14:45;;;;;;;10.68;9.88;;;12.20;67.40;;;;;;5091296;28;20043;-75
2021/10/21 01:17:17;;;;;;;10.45;9.65;;;12.10;66.90;;;;;;5111931;28;20143;-74
2021/10/21 01:19:50;;;;;;;10.63;9.75;;;12.10;67.50;;;;;;5113646;28;20047;-74
2021/10/21 01:22:22;;;;;;;11.13;10.23;;;12.10;66.80;;;;;;5113901;28;20158;-73
2021/10/21 01:24:54;;;;;;;10.40;9.60;;;12.10;66.70;;;;;;5083041;28;20051;-74
2021/10/21 01:27:26;;;;;;;10.50;9.70;;;12.10;66.90;;;;;;5114128;28;20078;-72
2021/10/21 01:29:58;;;;;;;11.15;10.25;;;12.10;66.60;;;;;;5116010;28;20047;-73
2021/10/21 01:32:34;;;;;;;11.40;10.50;;;12.10;66.70;;;;;;5114708;28;20053;-74
2021/10/21 01:35:07;;;;;;;11.20;10.27;;;12.10;66.70;;;;;;5099641;29;20126;-72
2021/10/21 01:37:39;;;;;;;10.95;10.05;;;12.10;66.10;;;;;;5114636;28;20128;-72
2021/10/21 01:40:11;;;;;;;11.05;10.10;;;12.10;66.20;;;;;;5116614;28;20142;-73
2021/10/21 01:42:44;;;;;;;11.98;10.68;;;12.10;66.20;;;;;;5114317;28;20170;-73
2021/10/21 01:45:18;;;;;;;11.48;10.57;;;12.10;66.40;;;;;;5116259;28;20740;-73
2021/10/21 01:47:51;;;;;;;11.50;10.55;;;12.00;66.70;;;;;;5116022;28;20043;-73
2021/10/21 01:50:24;;;;;;;11.55;10.65;;;12.00;67.10;;;;;;5115921;28;20470;-73
2021/10/21 01:52:56;;;;;;;11.32;10.38;;;11.90;67.10;;;;;;5114916;28;20513;-73
2021/10/21 01:55:28;;;;;;;12.70;11.52;;;11.90;66.20;;;;;;5115158;28;20361;-73
2021/10/21 01:58:00;;;;;;;12.15;11.15;;;12.00;66.10;;;;;;5115270;28;20587;-74
2021/10/21 02:00:32;;;;;;;11.48;10.57;;;12.00;66.20;;;;;;5115805;28;20158;-73
2021/10/21 02:03:04;;;;;;;12.73;11.63;;;12.00;66.50;;;;;;5113787;28;20047;-73
2021/10/21 02:05:36;;;;;;;12.00;10.90;;;11.90;65.80;;;;;;5115705;28;20507;-72
2021/10/21 02:08:07;;;;;;;12.10;10.88;;;12.00;66.80;;;;;;5115878;28;20111;-72
2021/10/21 02:10:40;;;;;;;11.77;10.75;;;11.90;66.10;;;;;;5114933;28;20047;-73
2021/10/21 02:13:13;;;;;;;11.68;10.68;;;11.90;66.60;;;;;;5114573;28;20063;-73
2021/10/21 02:15:45;;;;;;;11.80;10.80;;;11.90;66.60;;;;;;5114408;28;20047;-73
2021/10/21 02:18:17;;;;;;;12.85;11.75;;;11.90;66.80;;;;;;5098342;28;20130;-73
2021/10/21 02:20:49;;;;;;;12.68;11.65;;;11.90;66.80;;;;;;5093305;29;20039;-73
2021/10/21 02:23:20;;;;;;;12.40;11.32;;;11.90;66.80;;;;;;5115097;28;20482;-74
2021/10/21 02:25:52;;;;;;;11.82;10.82;;;11.90;67.20;;;;;;5115313;28;20051;-74
2021/10/21 02:28:24;;;;;;;12.35;11.32;;;11.90;66.30;;;;;;5115781;28;20153;-73
2021/10/21 02:30:57;;;;;;;12.45;11.25;;;11.90;66.70;;;;;;5112766;28;20047;-73
2021/10/21 02:33:29;;;;;;;12.73;11.73;;;11.90;67.20;;;;;;5114998;28;20059;-73
2021/10/21 02:36:01;;;;;;;12.40;11.30;;;11.90;67.10;;;;;;5096333;28;20153;-73
2021/10/21 02:38:33;;;;;;;13.13;11.98;;;11.90;67.60;;;;;;5116221;28;20079;-73
2021/10/21 02:41:05;;;;;;;13.02;11.85;;;11.90;67.60;;;;;;5111187;28;20070;-72
2021/10/21 02:43:37;;;;;;;12.75;11.65;;;12.00;67.60;;;;;;5115244;28;20178;-72
2021/10/21 02:46:10;;;;;;;13.23;12.13;;;12.00;67.60;;;;;;5112948;28;20067;-73
2021/10/21 02:48:42;;;;;;;12.98;11.88;;;12.00;67.10;;;;;;5098185;28;20162;-72
2021/10/21 02:51:14;;;;;;;12.65;11.55;;;12.00;67.00;;;;;;5112506;28;20098;-72
2021/10/21 02:53:48;;;;;;;12.50;11.40;;;12.10;67.10;;;;;;5115111;28;20047;-73
2021/10/21 02:56:20;;;;;;;12.82;11.73;;;12.10;66.40;;;;;;5112757;28;20437;-73
2021/10/21 02:58:52;;;;;;;12.80;11.60;;;12.20;66.30;;;;;;5110979;28;20047;-73
2021/10/21 03:01:24;;;;;;;13.23;12.07;;;12.20;66.40;;;;;;5114741;28;20127;-73
2021/10/21 03:03:58;;;;;;;12.95;11.85;;;12.20;67.20;;;;;;5113053;28;20051;-74
2021/10/21 03:06:30;;;;;;;13.60;12.23;;;12.30;66.10;;;;;;5114829;28;20589;-72
2021/10/21 03:09:02;;;;;;;13.50;12.15;;;12.40;66.60;;;;;;5114736;28;20874;-73
2021/10/21 03:11:34;;;;;;;12.98;11.88;;;12.40;65.70;;;;;;5112597;28;20047;-73
2021/10/21 03:14:06;;;;;;;13.10;12.00;;;12.50;66.00;;;;;;5114783;28;20054;-73
2021/10/21 03:16:38;;;;;;;12.98;11.88;;;12.50;66.40;;;;;;5112065;28;20754;-73
2021/10/21 03:19:10;;;;;;;13.55;12.35;;;12.50;65.90;;;;;;5116281;28;20067;-72
2021/10/21 03:21:42;;;;;;;12.52;11.52;;;12.50;66.90;;;;;;5112818;28;20126;-74
2021/10/21 03:24:14;;;;;;;12.35;11.35;;;12.50;68.10;;;;;;5114445;28;20071;-73
2021/10/21 03:26:47;;;;;;;12.85;11.73;;;12.50;67.80;;;;;;5113506;28;20097;-73
2021/10/21 03:29:19;;;;;;;13.25;12.05;;;12.50;67.80;;;;;;5114137;28;20078;-74
2021/10/21 03:31:51;;;;;;;11.65;10.65;;;12.60;66.90;;;;;;5111710;28;20517;-73
2021/10/21 03:34:22;;;;;;;11.93;10.82;;;12.60;65.30;;;;;;5114543;28;20562;-74
2021/10/21 03:36:54;;;;;;;11.68;10.70;;;12.70;64.20;;;;;;5113762;28;20058;-73
2021/10/21 03:39:26;;;;;;;11.10;10.10;;;12.90;64.00;;;;;;5114379;28;20530;-73
2021/10/21 03:41:58;;;;;;;11.77;10.55;;;13.10;63.90;;;;;;5112718;28;20202;-73
2021/10/21 03:44:30;;;;;;;11.07;10.18;;;13.30;63.40;;;;;;5114826;28;20473;-74
2021/10/21 03:47:03;;;;;;;11.95;10.75;;;13.40;63.60;;;;;;5114518;28;20047;-74
2021/10/21 03:49:36;;;;;;;11.38;10.38;;;13.40;64.40;;;;;;5112893;28;20057;-74
2021/10/21 03:52:08;;;;;;;11.52;10.55;;;13.50;65.40;;;;;;5113513;28;20058;-73
2021/10/21 03:54:40;;;;;;;11.57;10.57;;;13.50;66.10;;;;;;5114066;28;20129;-74
2021/10/21 03:57:12;;;;;;;12.57;11.25;;;13.50;67.40;;;;;;5113495;28;20046;-73
2021/10/21 03:59:43;;;;;;;12.93;11.63;;;13.60;68.50;;;;;;5113590;28;20155;-74
2021/10/21 04:02:15;;;;;;;13.57;12.27;;;13.60;69.60;;;;;;5112476;28;20517;-73
2021/10/21 04:04:47;;;;;;;13.50;12.40;;;13.70;70.20;;;;;;5113422;28;20046;-74
2021/10/21 04:07:19;;;;;;;13.80;12.63;;;13.70;71.20;;;;;;5088702;29;20043;-75
2021/10/21 04:09:51;;;;;;;14.15;12.95;;;13.70;72.30;;;;;;5112556;28;20070;-72
2021/10/21 04:12:23;;;;;;;14.23;13.02;;;13.70;72.50;;;;;;5112634;28;20070;-73
2021/10/21 04:14:55;;;;;;;13.88;12.68;;;13.70;73.10;;;;;;5112493;28;20516;-74
2021/10/21 04:17:27;;;;;;;14.35;12.90;;;13.70;73.90;;;;;;5113994;28;20177;-74
2021/10/21 04:19:59;;;;;;;13.63;12.52;;;13.70;74.20;;;;;;5112550;28;20051;-74
2021/10/21 04:22:31;;;;;;;14.30;12.80;;;13.70;74.90;;;;;;5113676;28;20075;-73
2021/10/21 04:25:03;;;;;;;13.98;12.80;;;13.70;75.60;;;;;;5111748;28;20074;-73
2021/10/21 04:27:35;;;;;;;13.93;12.77;;;13.60;74.90;;;;;;5113933;28;20134;-73
2021/10/21 04:30:07;;;;;;;13.57;12.48;;;13.60;75.00;;;;;;5112230;28;20437;-73
2021/10/21 04:32:41;;;;;;;13.45;12.35;;;13.60;76.10;;;;;;5112815;28;20079;-73
2021/10/21 04:35:13;;;;;;;13.93;12.73;;;13.60;75.50;;;;;;5089983;29;20073;-73
2021/10/21 04:37:45;;;;;;;13.95;12.85;;;13.60;75.80;;;;;;5094478;28;20051;-73
2021/10/21 04:40:17;;;;;;;14.32;13.15;;;13.60;76.40;;;;;;5095132;29;20761;-73
2021/10/21 04:42:49;;;;;;;14.02;12.73;;;13.50;76.80;;;;;;5088888;28;20181;-73
2021/10/21 04:45:21;;;;;;;13.32;12.23;;;13.50;76.80;;;;;;5090539;29;20043;-73
2021/10/21 04:47:56;;;;;;;13.43;12.32;;;13.50;76.80;;;;;;5113698;28;20102;-73
2021/10/21 04:50:28;;;;;;;13.45;12.25;;;13.50;77.70;;;;;;5111120;28;20043;-73
2021/10/21 04:52:59;;;;;;;14.00;12.70;;;13.50;78.20;;;;;;5110804;28;20917;-72
2021/10/21 04:55:35;;;;;;;13.80;12.43;;;13.50;78.20;;;;;;5114173;28;20584;-72
2021/10/21 04:58:07;;;;;;;13.80;12.45;;;13.40;79.50;;;;;;5099643;28;20047;-72
2021/10/21 05:00:39;;;;;;;12.38;11.38;;;13.30;80.30;;;;;;5115165;28;20138;-74
2021/10/21 05:03:12;;;;;;;13.20;12.00;;;13.30;80.40;;;;;;5115462;28;20055;-70
2021/10/21 05:05:44;;;;;;;13.70;12.50;;;13.20;81.30;;;;;;5115128;28;20138;-74
2021/10/21 05:08:16;;;;;;;13.80;12.60;;;13.20;81.20;;;;;;5096866;28;20442;-71
2021/10/21 05:10:48;;;;;;;13.32;12.18;;;13.20;81.10;;;;;;5113905;28;20485;-72
2021/10/21 05:13:20;;;;;;;13.50;12.40;;;13.20;81.30;;;;;;5096471;28;20129;-73
2021/10/21 05:15:51;;;;;;;13.43;12.23;;;13.10;81.00;;;;;;5115017;28;20130;-73
2021/10/21 05:18:23;;;;;;;12.63;11.63;;;13.10;81.90;;;;;;5116467;28;20118;-73
2021/10/21 05:20:56;;;;;;;12.95;11.85;;;13.00;80.60;;;;;;5098202;28;20457;-71
2021/10/21 05:23:27;;;;;;;12.50;11.40;;;13.00;80.90;;;;;;5114700;28;20046;-72
2021/10/21 05:25:59;;;;;;;14.10;12.90;;;13.10;81.40;;;;;;5115757;28;20059;-72
2021/10/21 05:28:31;;;;;;;13.95;12.65;;;13.10;81.80;;;;;;5114671;28;20058;-71
2021/10/21 05:31:03;;;;;;;13.57;12.38;;;13.10;82.30;;;;;;5114956;28;20043;-72
2021/10/21 05:33:35;;;;;;;13.32;12.23;;;13.00;81.60;;;;;;5113122;28;20484;-72
2021/10/21 05:36:07;;;;;;;13.13;12.02;;;13.10;82.20;;;;;;5096699;29;20043;-72
2021/10/21 05:38:39;;;;;;;12.80;11.60;;;13.10;82.20;;;;;;5111704;28;20131;-71
2021/10/21 05:41:11;;;;;;;13.48;12.23;;;13.10;82.40;;;;;;5096127;29;20147;-74
2021/10/21 05:43:43;;;;;;;13.55;12.38;;;13.10;83.00;;;;;;5109192;28;20548;-73
2021/10/21 05:46:15;;;;;;;12.88;11.85;;;13.10;83.30;;;;;;5090534;28;20035;-73
2021/10/21 05:48:47;;;;;;;13.43;12.23;;;13.00;84.60;;;;;;5113317;28;20126;-73
2021/10/21 05:51:19;;;;;;;13.32;12.23;;;13.10;84.20;;;;;;5096301;28;20210;-72
2021/10/21 05:53:54;;;;;;;13.60;12.40;;;13.00;85.10;;;;;;5114471;28;20102;-73
2021/10/21 05:56:26;;;;;;;12.90;11.70;;;13.00;86.20;;;;;;5115313;28;20057;-73
2021/10/21 05:58:59;;;;;;;12.82;11.63;;;13.00;85.30;;;;;;5116100;28;20035;-73
2021/10/21 06:01:31;;;;;;;12.90;11.82;;;13.00;84.60;;;;;;5114409;28;20046;-73
2021/10/21 06:04:03;;;;;;;10.80;9.90;;;13.00;86.30;;;;;;5116353;28;20519;-73
2021/10/21 06:06:37;;;;;;;11.10;10.20;;;12.90;85.10;;;;;;5113203;28;20038;-72
2021/10/21 06:09:09;;;;;;;11.13;10.23;;;12.90;85.80;;;;;;5115415;28;20197;-72
2021/10/21 06:11:41;;;;;;;10.40;9.60;;;12.90;85.70;;;;;;5113107;28;20055;-73
2021/10/21 06:14:12;;;;;;;9.50;8.80;;;12.80;85.30;;;;;;5116407;28;20142;-72
2021/10/21 06:16:47;;;;;;;9.68;8.88;;;12.80;84.20;;;;;;5114714;28;20074;-73
2021/10/21 06:19:20;;;;;;;9.25;8.52;;;12.70;84.40;;;;;;5116117;28;20409;-73
2021/10/21 06:21:58;;;;;;;9.07;8.38;;;12.70;84.10;;;;;;5115183;28;20043;-73
2021/10/21 06:24:30;;;;;;;8.98;8.27;;;12.70;84.60;;;;;;5115123;28;20127;-74
2021/10/21 06:27:02;;;;;;;9.98;9.05;;;12.70;83.20;;;;;;5114652;28;20039;-74
2021/10/21 06:29:33;;;;;;;9.95;9.18;;;12.50;82.60;;;;;;5115164;28;20055;-73
2021/10/21 06:32:07;;;;;;;9.70;8.90;;;12.40;83.10;;;;;;5114349;28;20043;-73
2021/10/21 06:34:42;;;;;;;10.02;9.23;;;12.40;83.90;;;;;;5116859;28;20039;-72
2021/10/21 06:37:14;;;;;;;9.43;8.63;;;12.30;84.20;;;;;;5114701;28;20051;-72
2021/10/21 06:39:53;;;;;;;9.55;8.70;;;12.40;83.40;;;;;;5114892;28;20046;-73
2021/10/21 06:42:25;;;;;;;8.87;8.17;;;12.30;84.10;;;;;;5112752;28;20134;-73
2021/10/21 06:44:57;;;;;;;9.10;8.40;;;12.30;84.10;;;;;;5115431;28;20427;-72
2021/10/21 06:47:29;;;;;;;8.93;8.23;;;12.20;83.20;;;;;;5114418;28;20048;-73
2021/10/21 06:50:01;;;;;;;8.75;7.95;;;12.20;83.10;;;;;;5115472;28;20718;-73
2021/10/21 06:52:33;;;;;;;8.70;8.00;;;12.10;82.50;;;;;;5114907;28;20074;-72
2021/10/21 06:55:06;;;;;;;8.88;8.15;;;12.10;83.70;;;;;;5115236;28;20035;-72
2021/10/21 06:57:51;;;;;;;9.00;8.10;;;12.10;82.20;;;;;;5114619;28;20189;-72
2021/10/21 07:00:25;;;;;;;9.20;8.50;;;12.00;80.40;;;;;;5114376;28;20163;-75
2021/10/21 07:02:57;;;;;;;9.13;8.25;;;12.00;80.60;;;;;;5113411;28;20133;-73
2021/10/21 07:05:35;;;;;;;9.02;8.13;;;11.70;80.40;;;;;;5097117;29;20047;-73
2021/10/21 07:08:08;;;;;;;9.25;8.45;;;11.60;80.40;;;;;;5114577;28;20035;-73
2021/10/21 07:10:40;;;;;;;9.02;8.13;;;11.40;79.30;;;;;;5114190;28;20045;-74
2021/10/21 07:13:13;;;;;;;9.25;8.25;;;11.20;78.80;;;;;;5114466;28;20051;-73
2021/10/21 07:16:06;;;;;;;8.20;7.40;;;11.20;80.20;;;;;;5094350;28;20059;-73
2021/10/21 07:18:38;;;;;;;9.27;8.48;;;11.10;80.40;;;;;;5092249;29;20051;-73
2021/10/21 07:21:11;;;;;;;8.80;8.00;;;11.10;82.00;;;;;;5115164;28;20134;-74
2021/10/21 07:23:47;;;;;;;10.88;7.90;;;11.10;80.30;;;;;;5115912;28;20142;-74
2021/10/21 07:26:18;;;;;;;8.63;7.93;;;11.00;77.80;;;;;;5114132;28;20043;-72
2021/10/21 07:28:50;;;;;;;8.55;7.85;;;11.00;81.00;;;;;;5114025;28;20039;-72
2021/10/21 07:31:23;;;;;;;8.80;7.95;;;11.00;81.70;;;;;;5113797;28;20687;-73
2021/10/21 07:33:55;;;;;;;9.05;8.32;;;11.00;82.50;;;;;;5097226;28;20057;-73
2021/10/21 07:36:27;;;;;;;8.55;7.75;;;11.00;82.90;;;;;;5115405;28;20170;-72
2021/10/21 07:38:59;;;;;;;10.05;8.05;;;10.90;82.60;;;;;;5091459;28;20055;-72
2021/10/21 07:41:31;;;;;;;9.13;7.82;;;11.00;82.10;;;;;;5113521;28;20083;-72
2021/10/21 07:44:03;;;;;;;8.48;7.68;;;11.00;83.00;;;;;;5113775;28;20043;-73
2021/10/21 07:46:35;;;;;;;8.40;7.70;;;11.00;80.80;;;;;;5114704;28;20043;-73
2021/10/21 07:49:07;;;;;;;10.25;7.68;;;11.00;80.90;;;;;;5114690;28;20102;-73
2021/10/21 07:51:40;;;;;;;7.60;6.90;;;11.10;80.30;;;;;;5114447;28;20195;-71
2021/10/21 07:54:12;;;;;;;8.48;7.68;;;11.20;82.50;;;;;;5113909;28;20819;-72
2021/10/21 07:56:45;;;;;;;8.40;7.60;;;11.20;80.30;;;;;;5114679;28;20092;-72
2021/10/21 07:59:17;;;;;;;8.45;7.72;;;11.20;81.80;;;;;;5114160;28;20126;-72
2021/10/21 08:01:49;;;;;;;8.95;8.05;;;11.20;79.40;;;;;;5113067;28;20049;-72
2021/10/21 08:04:21;;;;;;;8.15;7.32;;;11.20;79.30;;;;;;5113258;28;20403;-72
2021/10/21 08:06:53;;;;;;;8.60;7.22;;;11.20;76.20;;;;;;5096331;28;20039;-72
2021/10/21 08:09:25;;;;;;;8.73;7.93;;;11.20;79.50;;;;;;5113412;28;20043;-72
2021/10/21 08:11:59;;;;;;;8.07;7.28;;;11.20;75.60;;;;;;5114541;28;20051;-72
2021/10/21 08:14:31;;;;;;;9.23;8.27;;;11.20;74.10;;;;;;5114570;28;20470;-72
2021/10/21 08:17:03;;;;;;;9.80;7.60;;;11.20;75.10;;;;;;5114156;28;20130;-72
2021/10/21 08:19:35;;;;;;;8.43;7.60;;;11.20;76.00;;;;;;5113564;28;20412;-73
2021/10/21 08:22:07;;;;;;;8.15;7.45;;;11.10;75.50;;;;;;5095864;29;20098;-73
2021/10/21 08:24:39;;;;;;;8.77;7.88;;;11.10;76.30;;;;;;5112980;28;20155;-73
2021/10/21 08:27:11;;;;;;;8.88;7.97;;;11.10;76.20;;;;;;5113943;28;20054;-73
2021/10/21 08:29:43;;;;;;;9.43;7.75;;;11.10;73.70;;;;;;5093637;28;20130;-74
2021/10/21 08:32:15;;;;;;;8.25;7.38;;;11.10;72.00;;;;;;5096316;28;20134;-73
2021/10/21 08:34:47;;;;;;;8.52;7.72;;;11.20;73.40;;;;;;5117527;28;20126;-73
2021/10/21 08:37:19;;;;;;;10.10;7.90;;;11.20;73.90;;;;;;5118553;28;20039;-74
2021/10/21 08:39:51;;;;;;;8.80;7.65;;;11.20;72.10;;;;;;5100133;28;20081;-73
2021/10/21 08:42:23;;;;;;;8.73;7.82;;;11.20;71.30;;;;;;5117235;28;20133;-74
2021/10/21 08:44:57;;;;;;;8.65;7.80;;;11.20;73.30;;;;;;5117386;28;20051;-72
2021/10/21 08:47:30;;;;;;;8.50;7.70;;;11.20;72.60;;;;;;5116970;28;20514;-73
2021/10/21 08:50:03;;;;;;;8.55;7.68;;;11.20;74.40;;;;;;5098514;28;20074;-72
2021/10/21 08:52:35;;;;;;;8.98;8.18;;;11.20;72.50;;;;;;5117220;28;20219;-73
2021/10/21 08:55:07;;;;;;;10.23;7.90;;;11.20;73.90;;;;;;5118169;28;20129;-73
2021/10/21 08:57:39;;;;;;;8.30;7.40;;;11.30;72.50;;;;;;5117739;28;20134;-73
2021/10/21 09:00:13;;;;;;;8.82;7.70;;;11.40;73.30;;;;;;5094918;29;20126;-73
2021/10/21 09:02:51;;;;;;;8.82;7.93;;;11.40;71.90;;;;;;5116071;28;20079;-73
2021/10/21 09:05:34;;;;;;;8.77;7.88;;;11.60;72.10;;;;;;5099562;29;20043;-73
2021/10/21 09:08:07;;;;;;;8.77;7.88;;;11.80;69.40;;;;;;5116096;28;20174;-73
2021/10/21 09:10:48;;;;;;;12.32;8.38;;;12.00;69.20;;;;;;5094190;29;20079;-73
2021/10/21 09:13:21;;;;;;;;;;;12.20;66.90;;;;;;5116456;28;20122;-73
2021/10/21 09:15:55;;;;;;;9.35;8.32;;;12.30;66.50;;;;;;5117124;28;20046;-73
2021/10/21 09:18:41;;;;;;;8.95;8.05;;;12.50;65.50;;;;;;5100797;28;20461;-74
2021/10/21 09:21:38;;;;;;;10.77;8.02;;;12.70;64.40;;;;;;5116240;28;20057;-74
2021/10/21 09:24:35;;;;;;;8.98;8.18;;;12.80;64.00;;;;;;5100852;29;20080;-74
2021/10/21 09:27:17;;;;;;;9.40;8.45;;;13.00;62.40;;;;;;5115595;28;20043;-73
2021/10/21 09:29:52;;;;;;;9.55;8.57;;;13.10;64.20;;;;;;5117551;28;20047;-75
2021/10/21 09:32:32;;;;;;;9.32;8.30;;;13.20;63.30;;;;;;5114658;28;20134;-72
2021/10/21 09:35:07;;;;;;;8.63;7.82;;;13.30;62.80;;;;;;5116799;28;20043;-74
2021/10/21 09:37:42;;;;;;;10.10;8.05;;;13.20;62.00;;;;;;5114423;28;20120;-74
2021/10/21 09:40:37;;;;;;;12.55;8.38;;;13.10;62.50;;;;;;5113723;28;20114;-73
2021/10/21 09:43:11;;;;;;;9.30;8.30;;;13.10;62.50;;;;;;5115312;28;20082;-73
2021/10/21 09:45:44;;;;;;;11.38;8.73;;;13.10;61.80;;;;;;5115884;28;20047;-73
2021/10/21 09:48:20;;;;;;;9.95;8.20;;;13.10;61.30;;;;;;5114878;28;20114;-74
2021/10/21 09:50:52;;;;;;;10.35;9.07;;;13.30;61.90;;;;;;5115309;28;20158;-73
2021/10/21 09:53:29;;;;;;;9.80;8.80;;;13.50;61.20;;;;;;5116565;28;20126;-73
2021/10/21 09:56:04;;;;;;;9.32;8.52;;;13.60;61.10;;;;;;5115550;28;20043;-74
2021/10/21 09:58:39;;;;;;;9.40;8.50;;;13.90;60.80;;;;;;5116453;28;20150;-74
2021/10/21 10:01:12;;;;;;;16.20;8.95;;;14.10;61.20;;;;;;5114425;28;20480;-73
2021/10/21 10:03:46;;;;;;;9.75;8.85;;;14.20;60.40;;;;;;5099174;28;20059;-71
2021/10/21 10:06:18;;;;;;;9.98;9.00;;;14.20;58.90;;;;;;5112389;28;20825;-71
2021/10/21 10:08:51;;;;;;;9.48;8.48;;;14.20;60.50;;;;;;5100288;28;20046;-71
2021/10/21 10:11:23;;;;;;;9.63;8.55;;;14.30;61.10;;;;;;5092217;28;20130;-72
2021/10/21 10:13:55;;;;;;;10.77;8.45;;;14.40;60.70;;;;;;5101593;28;20122;-72
2021/10/21 10:16:27;;;;;;;12.75;8.70;;;14.40;59.70;;;;;;5098270;28;20086;-73
2021/10/21 10:19:04;;;;;;;9.20;8.30;;;14.20;58.50;;;;;;5095158;29;20501;-72
2021/10/21 10:21:37;;;;;;;9.88;8.55;;;14.10;57.20;;;;;;5081413;28;20055;-71
2021/10/21 10:24:12;;;;;;;9.65;8.30;;;14.10;59.10;;;;;;5116951;28;20098;-71
2021/10/21 10:26:57;;;;;;;9.80;8.80;;;14.10;58.90;;;;;;5114417;28;20424;-71
2021/10/21 10:29:32;;;;;;;9.63;8.63;;;14.10;59.00;;;;;;5116316;28;20675;-72
2021/10/21 10:32:06;;;;;;;10.38;9.35;;;14.10;58.70;;;;;;5113209;28;20061;-72
2021/10/21 10:34:38;;;;;;;9.93;9.02;;;14.10;58.60;;;;;;5097663;28;20465;-72
2021/10/21 10:37:13;;;;;;;9.38;8.32;;;14.10;54.20;;;;;;5113120;28;20139;-72
2021/10/21 10:39:50;;;;;;;9.75;8.75;;;14.10;59.40;;;;;;5112618;28;20072;-72
2021/10/21 10:42:31;;;;;;;12.13;9.40;;;14.20;58.40;;;;;;5111377;28;20079;-72
2021/10/21 10:45:03;;;;;;;9.73;8.82;;;14.30;55.30;;;;;;5112192;28;20560;-71
2021/10/21 10:47:43;;;;;;;9.52;8.63;;;14.20;56.00;;;;;;5096731;28;20043;-72
2021/10/21 10:50:16;;;;;;;10.40;9.33;;;14.20;56.30;;;;;;5114088;28;20047;-72
2021/10/21 10:52:59;;;;;;;10.27;8.65;;;14.40;56.10;;;;;;5112527;28;20053;-73
2021/10/21 10:55:50;;;;;;;9.50;8.50;;;14.50;56.90;;;;;;5111718;28;20320;-72
2021/10/21 10:58:28;;;;;;;9.35;8.55;;;14.20;55.20;;;;;;5113663;28;20074;-72
2021/10/21 11:01:00;;;;;;;9.82;8.65;;;14.20;56.60;;;;;;5110973;28;20047;-72
2021/10/21 11:03:34;;;;;;;9.93;8.52;;;14.10;54.80;;;;;;5113483;28;20584;-72
2021/10/21 11:06:12;;;;;;;9.18;8.05;;;14.00;57.10;;;;;;5111419;28;20078;-72
2021/10/21 11:08:58;;;;;;;9.07;8.10;;;13.80;55.30;;;;;;5114571;28;20047;-73
2021/10/21 11:11:39;;;;;;;9.30;8.45;;;13.70;55.80;;;;;;5112487;28;20912;-72
2021/10/21 11:14:12;;;;;;;9.93;9.02;;;13.60;57.80;;;;;;5114794;28;20113;-75
2021/10/21 11:16:55;;;;;;;12.90;11.05;;;13.50;58.90;;;;;;5114345;28;20141;-73
2021/10/21 11:19:39;;;;;;;10.10;9.10;;;13.30;58.70;;;;;;5095828;29;20039;-72
2021/10/21 11:22:20;;;;;;;10.95;8.15;;;13.30;57.00;;;;;;5079247;28;20043;-72
2021/10/21 11:24:53;;;;;;;8.43;7.72;;;13.20;56.60;;;;;;5112777;28;20039;-73
2021/10/21 11:27:35;;;;;;;9.50;7.82;;;13.30;58.90;;;;;;5114189;28;20043;-72
2021/10/21 11:30:18;;;;;;;8.98;8.07;;;13.40;57.10;;;;;;5113101;28;20051;-72
2021/10/21 11:33:09;;;;;;;9.40;8.23;;;13.60;56.20;;;;;;5111307;28;20054;-72
2021/10/21 11:35:41;;;;;;;9.23;8.32;;;13.80;58.20;;;;;;5109977;28;20047;-73
2021/10/21 11:38:18;;;;;;;8.93;8.10;;;13.90;55.80;;;;;;5114936;28;20890;-72
2021/10/21 11:40:54;;;;;;;9.27;8.38;;;14.10;54.50;;;;;;5112661;28;20062;-72
2021/10/21 11:43:36;;;;;;;8.93;8.13;;;14.20;54.80;;;;;;5095388;29;20053;-72
2021/10/21 11:46:11;;;;;;;8.85;7.93;;;14.20;53.60;;;;;;5112362;28;20048;-73
2021/10/21 11:48:43;;;;;;;10.93;7.78;;;14.20;53.60;;;;;;5114283;28;20468;-73
2021/10/21 11:51:15;;;;;;;9.20;8.40;;;14.10;55.20;;;;;;5111377;28;20075;-73
2021/10/21 11:53:49;;;;;;;9.35;8.38;;;14.00;54.00;;;;;;5112738;28;20047;-72
2021/10/21 11:56:24;;;;;;;8.35;7.55;;;14.00;55.50;;;;;;5095274;28;20098;-72
2021/10/21 11:59:00;;;;;;;10.25;7.93;;;14.10;54.20;;;;;;5110124;28;20109;-72
2021/10/21 12:01:32;;;;;;;9.27;8.38;;;14.00;54.10;;;;;;5111718;28;20114;-73
2021/10/21 12:04:06;;;;;;;9.52;8.02;;;14.10;55.20;;;;;;5112040;28;20038;-72
2021/10/21 12:06:42;;;;;;;9.38;8.40;;;14.10;55.90;;;;;;5095974;28;20533;-72
2021/10/21 12:09:18;;;;;;;8.63;7.93;;;14.40;56.70;;;;;;5094883;28;20078;-71
2021/10/21 12:12:00;;;;;;;8.82;7.95;;;14.50;56.10;;;;;;5110683;28;20082;-71
2021/10/21 12:14:34;;;;;;;8.98;8.05;;;14.40;54.90;;;;;;5112533;28;20091;-73
2021/10/21 12:17:06;;;;;;;9.45;8.00;;;14.20;54.70;;;;;;5114035;28;20071;-73
2021/10/21 12:19:52;;;;;;;8.85;7.97;;;14.40;56.40;;;;;;5091337;28;20636;-72
2021/10/21 12:22:28;;;;;;;9.45;8.13;;;14.50;55.50;;;;;;5111987;28;20051;-73
2021/10/21 12:25:00;;;;;;;9.13;8.23;;;14.50;55.50;;;;;;5113444;28;20051;-72
2021/10/21 12:27:33;;;;;;;9.13;8.20;;;14.30;56.30;;;;;;5114478;28;20129;-73
2021/10/21 12:30:08;;;;;;;8.93;8.13;;;14.40;55.80;;;;;;5113177;28;20529;-73
2021/10/21 12:32:40;;;;;;;9.75;8.73;;;14.20;55.90;;;;;;5112585;28;20443;-73
2021/10/21 12:35:12;;;;;;;9.40;8.48;;;14.10;55.70;;;;;;5113422;28;20126;-73
2021/10/21 12:37:44;;;;;;;9.20;8.32;;;14.10;57.00;;;;;;5113926;28;20051;-73
2021/10/21 12:40:24;;;;;;;9.10;8.20;;;14.30;55.80;;;;;;5111700;28;20122;-73
2021/10/21 12:43:16;;;;;;;9.70;8.70;;;14.40;57.60;;;;;;5091461;28;20044;-72
2021/10/21 12:45:48;;;;;;;9.55;8.65;;;14.40;55.10;;;;;;5110640;28;20126;-73
2021/10/21 12:48:28;;;;;;;9.25;8.32;;;14.10;54.50;;;;;;5113173;28;20035;-72
2021/10/21 12:51:31;;;;;;;9.75;8.75;;;14.10;57.20;;;;;;5089405;28;20055;-73
2021/10/21 12:54:03;;;;;;;9.18;8.30;;;14.20;56.10;;;;;;5091606;28;20122;-73
2021/10/21 12:56:39;;;;;;;9.90;8.57;;;14.10;57.10;;;;;;5111513;28;20791;-72
2021/10/21 12:59:11;;;;;;;9.93;8.95;;;14.10;56.10;;;;;;5096483;29;20047;-73
2021/10/21 13:02:09;;;;;;;9.13;8.30;;;14.10;57.00;;;;;;5109095;28;20812;-73
2021/10/21 13:04:43;;;;;;;9.45;8.48;;;14.10;57.70;;;;;;5093952;28;20035;-73
2021/10/21 13:07:23;;;;;;;9.85;8.38;;;14.00;56.90;;;;;;5090371;29;20111;-72
2021/10/21 13:09:55;;;;;;;9.35;8.18;;;14.00;58.00;;;;;;5111707;28;20122;-72
2021/10/21 13:12:27;;;;;;;9.02;8.13;;;14.00;57.20;;;;;;5110013;28;20478;-72